createdAt,value
2022-11-17T00:00:27.444Z,12.30
2022-11-17T00:02:55.841Z,11.60
2022-11-17T00:05:25.630Z,11.13
2022-11-17T00:07:54.716Z,10.60
2022-11-17T00:10:23.212Z,9.67
2022-11-17T00:13:08.849Z,10.73
2022-11-17T00:15:37.371Z,10.30
2022-11-17T00:18:19.705Z,10.00
2022-11-17T00:21:06.783Z,9.97
2022-11-17T00:23:48.072Z,10.17
2022-11-17T00:26:17.593Z,10.67
2022-11-17T00:28:46.204Z,10.93
2022-11-17T00:31:32.740Z,11.67
2022-11-17T00:34:07.705Z,10.70
2022-11-17T00:36:39.907Z,10.47
2022-11-17T00:39:08.920Z,9.97
2022-11-17T00:41:37.593Z,10.17
2022-11-17T00:44:06.842Z,10.60
2022-11-17T00:46:37.104Z,10.90
2022-11-17T00:49:05.921Z,10.47
2022-11-17T00:51:34.626Z,10.70
2022-11-17T00:54:04.595Z,10.33
2022-11-17T00:56:33.665Z,11.20
2022-11-17T00:59:02.240Z,11.53
2022-11-17T01:01:31.424Z,11.30
2022-11-17T01:04:04.106Z,11.60
2022-11-17T01:06:34.287Z,11.17
2022-11-17T01:09:04.877Z,11.03
2022-11-17T01:11:33.528Z,10.80
2022-11-17T01:14:02.557Z,10.30
2022-11-17T01:16:31.889Z,9.93
2022-11-17T01:19:01.794Z,9.10
2022-11-17T01:21:31.144Z,8.30
2022-11-17T01:24:01.386Z,8.00
2022-11-17T01:26:34.116Z,7.60
2022-11-17T01:29:04.139Z,6.80
2022-11-17T01:31:34.636Z,6.40
2022-11-17T01:34:03.487Z,6.70
2022-11-17T01:36:55.858Z,6.60
2022-11-17T01:39:24.812Z,6.13
2022-11-17T01:41:55.283Z,6.57
2022-11-17T01:44:49.277Z,6.73
2022-11-17T01:47:20.790Z,6.40
2022-11-17T01:49:50.278Z,6.27
2022-11-17T01:52:19.240Z,6.50
2022-11-17T01:54:49.213Z,6.60
2022-11-17T01:57:21.401Z,6.20
2022-11-17T01:59:52.456Z,5.80
2022-11-17T02:02:21.258Z,5.80
2022-11-17T02:04:57.022Z,6.57
2022-11-17T02:07:28.379Z,5.50
2022-11-17T02:09:57.921Z,4.93
2022-11-17T02:12:28.759Z,5.40
2022-11-17T02:14:57.252Z,4.83
2022-11-17T02:17:29.958Z,5.03
2022-11-17T02:20:05.883Z,4.70
2022-11-17T02:23:04.597Z,4.37
2022-11-17T02:26:14.193Z,4.27
2022-11-17T02:28:49.973Z,4.37
2022-11-17T02:31:22.325Z,4.70
2022-11-17T02:33:56.055Z,4.80
2022-11-17T02:36:30.293Z,4.40
2022-11-17T02:39:04.443Z,4.70
2022-11-17T02:41:37.482Z,4.37
2022-11-17T02:44:10.118Z,4.70
2022-11-17T02:46:45.537Z,4.73
2022-11-17T02:49:19.824Z,4.60
2022-11-17T02:51:50.405Z,4.87
2022-11-17T02:54:20.119Z,4.77
2022-11-17T02:56:48.465Z,4.73
2022-11-17T02:59:20.115Z,4.23
2022-11-17T03:02:08.152Z,4.33
2022-11-17T03:04:44.264Z,3.90
2022-11-17T03:07:24.611Z,3.40
2022-11-17T03:10:01.941Z,3.80
2022-11-17T03:12:35.504Z,3.63
2022-11-17T03:15:13.142Z,3.90
2022-11-17T03:17:48.086Z,3.77
2022-11-17T03:20:20.362Z,3.50
2022-11-17T03:22:52.570Z,3.10
2022-11-17T03:25:23.168Z,2.90
2022-11-17T03:27:54.409Z,3.20
2022-11-17T03:30:25.624Z,3.07
2022-11-17T03:32:57.005Z,3.67
2022-11-17T03:35:27.455Z,5.23
2022-11-17T03:37:57.829Z,7.23
2022-11-17T03:40:29.301Z,7.20
2022-11-17T03:43:00.429Z,6.40
2022-11-17T03:45:31.806Z,6.13
2022-11-17T03:48:03.129Z,5.40
2022-11-17T03:50:34.837Z,5.23
2022-11-17T03:53:04.570Z,4.27
2022-11-17T03:55:37.782Z,3.63
2022-11-17T03:58:08.882Z,2.83
2022-11-17T04:00:40.574Z,2.80
2022-11-17T04:03:09.051Z,2.90
2022-11-17T04:05:37.561Z,2.80
2022-11-17T04:08:06.185Z,2.50
2022-11-17T04:10:54.644Z,2.70
2022-11-17T04:13:39.510Z,2.77
2022-11-17T04:16:09.772Z,2.83
2022-11-17T04:18:38.372Z,4.10
2022-11-17T04:21:07.153Z,6.83
2022-11-17T04:23:35.909Z,6.20
2022-11-17T04:26:22.105Z,6.17
2022-11-17T04:28:51.549Z,6.93
2022-11-17T04:31:23.792Z,6.70
2022-11-17T04:33:53.507Z,6.40
2022-11-17T04:36:23.783Z,6.87
2022-11-17T04:38:54.022Z,6.80
2022-11-17T04:41:41.105Z,6.40
2022-11-17T04:44:11.292Z,6.10
2022-11-17T04:46:41.850Z,7.57
2022-11-17T04:49:10.276Z,6.40
2022-11-17T04:51:39.199Z,6.10
2022-11-17T04:54:08.236Z,5.43
2022-11-17T04:56:37.608Z,3.80
2022-11-17T04:59:06.697Z,2.97
2022-11-17T05:01:35.252Z,2.50
2022-11-17T05:04:06.607Z,2.40
2022-11-17T05:06:36.956Z,2.30
2022-11-17T05:09:07.211Z,2.53
2022-11-17T05:11:53.265Z,2.30
2022-11-17T05:14:23.381Z,2.90
2022-11-17T05:17:10.381Z,3.03
2022-11-17T05:19:44.208Z,3.40
2022-11-17T05:22:31.740Z,3.67
2022-11-17T05:25:00.349Z,5.77
2022-11-17T05:27:28.777Z,7.10
2022-11-17T05:29:57.216Z,8.23
2022-11-17T05:32:25.661Z,6.80
2022-11-17T05:34:55.524Z,7.30
2022-11-17T05:37:24.005Z,5.43
2022-11-17T05:39:52.410Z,4.60
2022-11-17T05:42:20.829Z,4.20
2022-11-17T05:44:49.302Z,4.33
2022-11-17T05:47:17.775Z,3.97
2022-11-17T05:49:46.185Z,4.13
2022-11-17T05:52:15.949Z,6.97
2022-11-17T05:54:44.459Z,6.40
2022-11-17T05:57:15.035Z,5.30
2022-11-17T05:59:46.718Z,4.30
2022-11-17T06:02:18.491Z,4.47
2022-11-17T06:04:47.406Z,4.27
2022-11-17T06:07:17.957Z,4.13
2022-11-17T06:09:47.859Z,4.00
2022-11-17T06:12:16.451Z,4.57
2022-11-17T06:14:44.883Z,4.87
2022-11-17T06:17:21.917Z,5.20
2022-11-17T06:19:53.330Z,7.20
2022-11-17T06:22:23.266Z,7.37
2022-11-17T06:24:51.761Z,5.27
2022-11-17T06:27:20.224Z,4.63
2022-11-17T06:29:48.922Z,4.30
2022-11-17T06:32:18.237Z,4.50
2022-11-17T06:34:54.884Z,7.60
2022-11-17T06:37:26.113Z,22.97
2022-11-17T06:39:54.844Z,10.10
2022-11-17T06:42:43.889Z,7.80
2022-11-17T06:45:13.389Z,7.27
2022-11-17T06:47:41.886Z,7.53
2022-11-17T06:50:10.954Z,6.87
2022-11-17T06:52:40.891Z,6.70
2022-11-17T06:55:10.001Z,5.73
2022-11-17T06:57:38.596Z,5.07
2022-11-17T07:00:08.293Z,5.60
2022-11-17T07:02:37.727Z,5.53
2022-11-17T07:05:06.837Z,6.33
2022-11-17T07:07:35.415Z,6.63
2022-11-17T07:10:05.807Z,6.73
2022-11-17T07:12:34.831Z,6.80
2022-11-17T07:15:03.396Z,6.70
2022-11-17T07:17:31.895Z,7.10
2022-11-17T07:20:00.483Z,6.53
2022-11-17T07:22:29.020Z,7.60
2022-11-17T07:24:57.500Z,7.83
2022-11-17T07:27:27.340Z,7.50
2022-11-17T07:29:55.877Z,6.73
2022-11-17T07:32:24.433Z,6.57
2022-11-17T07:34:53.023Z,6.43
2022-11-17T07:37:21.761Z,6.43
2022-11-17T07:39:50.379Z,6.10
2022-11-17T07:42:18.827Z,6.20
2022-11-17T07:44:48.640Z,6.97
2022-11-17T07:47:17.210Z,6.67
2022-11-17T07:49:45.701Z,6.60
2022-11-17T07:52:14.180Z,7.00
2022-11-17T07:54:42.738Z,6.30
2022-11-17T07:57:11.211Z,6.80
2022-11-17T07:59:39.671Z,6.30
2022-11-17T08:02:10.329Z,5.80
2022-11-17T08:04:38.808Z,5.67
2022-11-17T08:07:07.284Z,6.10
2022-11-17T08:09:35.775Z,6.60
2022-11-17T08:12:04.261Z,5.97
2022-11-17T08:14:32.746Z,6.73
2022-11-17T08:17:01.231Z,5.70
2022-11-17T08:19:31.200Z,5.00
2022-11-17T08:22:02.508Z,5.30
2022-11-17T08:24:31.020Z,5.13
2022-11-17T08:26:59.464Z,9.83
2022-11-17T08:29:28.057Z,9.03
2022-11-17T08:31:56.619Z,6.70
2022-11-17T08:34:25.097Z,6.07
2022-11-17T08:36:54.944Z,5.87
2022-11-17T08:39:23.493Z,6.80
2022-11-17T08:41:52.831Z,7.23
2022-11-17T08:44:21.327Z,7.40
2022-11-17T08:46:50.100Z,10.03
2022-11-17T08:49:18.550Z,8.27
2022-11-17T08:51:47.140Z,7.50
2022-11-17T08:54:17.096Z,6.70
2022-11-17T08:56:46.553Z,6.30
2022-11-17T08:59:15.471Z,6.07
2022-11-17T09:01:43.980Z,5.80
2022-11-17T09:04:12.460Z,5.43
2022-11-17T09:06:40.980Z,5.50
2022-11-17T09:09:09.444Z,5.60
2022-11-17T09:11:39.324Z,5.60
2022-11-17T09:14:08.227Z,5.40
2022-11-17T09:16:36.888Z,5.87
2022-11-17T09:19:05.379Z,5.57
2022-11-17T09:21:33.879Z,5.50
2022-11-17T09:24:02.307Z,5.27
2022-11-17T09:26:30.759Z,5.23
2022-11-17T09:29:03.907Z,5.43
2022-11-17T09:31:32.585Z,6.00
2022-11-17T09:34:05.294Z,5.80
2022-11-17T09:36:36.692Z,5.80
2022-11-17T09:39:05.406Z,8.60
2022-11-17T09:41:37.115Z,8.13
2022-11-17T09:44:15.730Z,8.13
2022-11-17T09:46:55.793Z,7.87
2022-11-17T09:49:32.182Z,7.37
2022-11-17T09:52:04.750Z,8.27
2022-11-17T09:54:39.987Z,9.93
2022-11-17T09:57:17.050Z,10.13
2022-11-17T09:59:46.882Z,10.23
2022-11-17T10:02:15.383Z,9.20
2022-11-17T10:04:43.891Z,8.70
2022-11-17T10:07:12.648Z,9.80
2022-11-17T10:09:43.819Z,8.53
2022-11-17T10:12:17.607Z,8.17
2022-11-17T10:14:47.886Z,8.97
2022-11-17T10:17:16.346Z,9.20
2022-11-17T10:19:46.244Z,13.87
2022-11-17T10:22:21.058Z,11.50
2022-11-17T10:24:51.699Z,8.50
2022-11-17T10:27:21.988Z,9.30
2022-11-17T10:30:08.072Z,16.27
2022-11-17T10:32:39.330Z,13.37
2022-11-17T10:35:18.126Z,18.80
2022-11-17T10:37:54.038Z,12.97
2022-11-17T10:40:25.905Z,10.97
2022-11-17T10:42:58.282Z,10.00
2022-11-17T10:45:28.203Z,15.27
2022-11-17T10:48:19.649Z,8.20
2022-11-17T10:50:54.002Z,7.40
2022-11-17T10:53:31.390Z,8.30
2022-11-17T10:56:07.501Z,7.73
2022-11-17T10:58:57.952Z,7.50
2022-11-17T11:01:32.812Z,11.27
2022-11-17T11:04:01.432Z,8.83
2022-11-17T11:06:31.026Z,7.60
2022-11-17T11:09:02.631Z,6.87
2022-11-17T11:11:38.231Z,6.67
2022-11-17T11:14:14.730Z,5.60
2022-11-17T11:16:48.231Z,4.87
2022-11-17T11:19:18.370Z,8.17
2022-11-17T11:22:16.972Z,8.07
2022-11-17T11:24:53.439Z,7.57
2022-11-17T11:28:02.116Z,6.57
2022-11-17T11:30:32.585Z,5.73
2022-11-17T11:33:10.578Z,5.37
2022-11-17T11:35:50.218Z,7.27
2022-11-17T11:38:39.452Z,6.57
2022-11-17T11:41:20.327Z,6.50
2022-11-17T11:43:58.558Z,9.30
2022-11-17T11:46:36.895Z,7.13
2022-11-17T11:49:15.370Z,6.17
2022-11-17T11:51:44.438Z,6.40
2022-11-17T11:54:15.612Z,6.70
2022-11-17T11:56:46.141Z,6.50
2022-11-17T11:59:18.001Z,6.33
2022-11-17T12:01:51.697Z,7.13
2022-11-17T12:04:26.763Z,7.97
2022-11-17T12:07:00.588Z,8.53
2022-11-17T12:09:46.043Z,8.03
2022-11-17T12:12:19.272Z,7.30
2022-11-17T12:15:33.516Z,8.63
2022-11-17T12:18:04.973Z,10.53
2022-11-17T12:20:59.451Z,8.20
2022-11-17T12:23:38.164Z,7.30
2022-11-17T12:26:06.814Z,7.43
2022-11-17T12:28:37.128Z,8.33
2022-11-17T12:31:09.997Z,9.13
2022-11-17T12:34:22.597Z,9.40
2022-11-17T12:37:20.229Z,8.70
2022-11-17T12:39:57.702Z,8.97
2022-11-17T12:42:26.568Z,8.03
2022-11-17T12:45:00.315Z,7.73
2022-11-17T12:47:30.729Z,8.30
2022-11-17T12:50:41.325Z,7.93
2022-11-17T12:53:34.788Z,7.90
2022-11-17T12:56:31.376Z,7.60
2022-11-17T12:59:15.456Z,8.10
2022-11-17T13:01:48.636Z,7.83
2022-11-17T13:04:18.891Z,8.30
2022-11-17T13:07:05.368Z,7.50
2022-11-17T13:09:36.688Z,7.20
2022-11-17T13:12:06.848Z,7.20
2022-11-17T13:14:37.063Z,7.70
2022-11-17T13:17:10.987Z,6.80
2022-11-17T13:19:41.343Z,6.30
2022-11-17T13:22:16.140Z,6.70
2022-11-17T13:24:47.232Z,7.70
2022-11-17T13:27:22.222Z,6.50
2022-11-17T13:29:50.682Z,7.27
2022-11-17T13:32:21.465Z,7.17
2022-11-17T13:34:52.185Z,7.67
2022-11-17T13:37:25.383Z,6.90
2022-11-17T13:40:03.006Z,7.63
2022-11-17T13:42:33.250Z,7.57
2022-11-17T13:45:04.304Z,7.33
2022-11-17T13:47:46.957Z,6.83
2022-11-17T13:50:34.431Z,7.20
2022-11-17T13:53:05.682Z,7.00
2022-11-17T13:55:36.766Z,7.13
2022-11-17T13:58:08.828Z,7.13
2022-11-17T14:00:37.416Z,6.43
2022-11-17T14:03:07.311Z,6.80
2022-11-17T14:05:35.851Z,6.60
2022-11-17T14:08:21.327Z,7.53
2022-11-17T14:10:51.256Z,7.50
2022-11-17T14:13:25.111Z,7.23
2022-11-17T14:15:57.348Z,8.00
2022-11-17T14:18:36.850Z,7.90
2022-11-17T14:21:07.762Z,8.43
2022-11-17T14:23:36.247Z,11.10
2022-11-17T14:26:06.559Z,10.17
2022-11-17T14:28:35.038Z,14.27
2022-11-17T14:31:03.640Z,13.80
2022-11-17T14:33:32.138Z,15.77
2022-11-17T14:36:01.278Z,14.67
2022-11-17T14:38:30.595Z,10.40
2022-11-17T14:40:59.756Z,9.83
2022-11-17T14:43:30.021Z,8.60
2022-11-17T14:45:58.788Z,13.20
2022-11-17T14:48:27.366Z,9.60
2022-11-17T14:50:59.951Z,8.90
2022-11-17T14:53:28.710Z,8.80
2022-11-17T14:55:57.136Z,8.43
2022-11-17T14:58:25.571Z,10.30
2022-11-17T15:00:56.224Z,15.63
2022-11-17T15:03:24.793Z,12.83
2022-11-17T15:05:53.282Z,10.73
2022-11-17T15:08:21.730Z,10.30
2022-11-17T15:10:51.339Z,10.30
2022-11-17T15:13:19.819Z,11.13
2022-11-17T15:15:48.297Z,16.07
2022-11-17T15:18:18.142Z,11.27
2022-11-17T15:20:47.347Z,12.73
2022-11-17T15:23:16.042Z,14.97
2022-11-17T15:25:44.517Z,14.97
2022-11-17T15:28:18.911Z,14.83
2022-11-17T15:30:49.927Z,14.20
2022-11-17T15:33:19.771Z,11.57
2022-11-17T15:35:48.323Z,13.27
2022-11-17T15:38:16.886Z,11.37
2022-11-17T15:40:45.344Z,12.27
2022-11-17T15:43:13.799Z,11.83
2022-11-17T15:45:42.215Z,10.10
2022-11-17T15:48:13.653Z,8.87
2022-11-17T15:50:47.604Z,16.00
2022-11-17T15:53:16.207Z,14.00
2022-11-17T15:55:44.800Z,11.50
2022-11-17T15:58:13.227Z,11.53
2022-11-17T16:00:41.730Z,12.07
2022-11-17T16:03:10.245Z,11.93
2022-11-17T16:05:38.669Z,11.87
2022-11-17T16:08:08.654Z,11.80
2022-11-17T16:10:37.379Z,11.47
2022-11-17T16:13:05.890Z,10.50
2022-11-17T16:15:34.657Z,8.30
2022-11-17T16:18:03.185Z,19.03
2022-11-17T16:20:31.829Z,10.70
2022-11-17T16:23:00.270Z,9.57
2022-11-17T16:25:30.083Z,9.77
2022-11-17T16:27:58.574Z,10.33
2022-11-17T16:30:32.773Z,11.20
2022-11-17T16:33:04.011Z,10.80
2022-11-17T16:35:32.563Z,12.10
2022-11-17T16:38:00.992Z,14.30
2022-11-17T16:40:31.487Z,12.87
2022-11-17T16:43:00.184Z,13.97
2022-11-17T16:45:28.835Z,13.87
2022-11-17T16:47:57.408Z,13.60
2022-11-17T16:50:26.058Z,12.77
2022-11-17T16:52:54.735Z,11.60
2022-11-17T16:55:23.263Z,11.73
2022-11-17T16:57:53.111Z,13.20
2022-11-17T17:00:21.995Z,12.47
2022-11-17T17:02:50.839Z,12.63
2022-11-17T17:05:19.483Z,13.23
2022-11-17T17:07:48.108Z,16.63
2022-11-17T17:10:16.664Z,19.07
2022-11-17T17:12:45.084Z,18.63
2022-11-17T17:15:15.173Z,14.60
2022-11-17T17:17:43.618Z,12.20
2022-11-17T17:20:12.914Z,11.30
2022-11-17T17:22:41.507Z,19.83
2022-11-17T17:25:10.605Z,23.10
2022-11-17T17:27:39.063Z,15.50
2022-11-17T17:30:08.442Z,16.83
2022-11-17T17:32:38.275Z,15.13
2022-11-17T17:35:08.034Z,12.77
2022-11-17T17:37:36.699Z,13.83
2022-11-17T17:40:05.816Z,17.67
2022-11-17T17:42:34.248Z,19.10
2022-11-17T17:45:02.771Z,17.77
2022-11-17T17:47:31.287Z,13.70
2022-11-17T17:50:01.241Z,10.53
2022-11-17T17:52:29.665Z,10.17
2022-11-17T17:54:58.198Z,11.43
2022-11-17T17:57:29.936Z,9.60
2022-11-17T18:00:02.313Z,14.53
2022-11-17T18:02:30.764Z,18.87
2022-11-17T18:05:00.664Z,15.90
2022-11-17T18:07:29.198Z,13.10
2022-11-17T18:09:57.686Z,12.47
2022-11-17T18:12:27.042Z,13.47
2022-11-17T18:14:56.335Z,13.93
2022-11-17T18:17:24.818Z,12.60
2022-11-17T18:19:53.394Z,13.20
2022-11-17T18:22:23.278Z,12.70
2022-11-17T18:24:53.801Z,11.17
2022-11-17T18:27:26.373Z,9.70
2022-11-17T18:29:54.857Z,10.90
2022-11-17T18:32:23.790Z,12.17
2022-11-17T18:34:52.357Z,11.07
2022-11-17T18:37:22.236Z,10.50
2022-11-17T18:39:50.819Z,10.13
2022-11-17T18:42:19.341Z,10.53
2022-11-17T18:44:47.851Z,9.80
2022-11-17T18:47:16.335Z,11.40
2022-11-17T18:49:44.826Z,11.30
2022-11-17T18:52:13.374Z,11.20
2022-11-17T18:54:43.166Z,11.27
2022-11-17T18:57:11.609Z,10.97
2022-11-17T18:59:40.115Z,9.67
2022-11-17T19:02:10.493Z,9.33
2022-11-17T19:04:39.002Z,9.97
2022-11-17T19:07:07.471Z,8.87
2022-11-17T19:09:36.216Z,8.70
2022-11-17T19:12:08.755Z,8.53
2022-11-17T19:14:37.207Z,9.00
2022-11-17T19:17:05.703Z,12.17
2022-11-17T19:19:34.198Z,25.73
2022-11-17T19:22:02.632Z,24.87
2022-11-17T19:24:31.111Z,19.40
2022-11-17T19:26:59.660Z,16.80
2022-11-17T19:29:29.909Z,16.50
2022-11-17T19:31:58.458Z,16.20
2022-11-17T19:34:26.926Z,15.47
2022-11-17T19:36:55.411Z,14.00
2022-11-17T19:39:24.024Z,14.13
2022-11-17T19:41:53.406Z,13.80
2022-11-17T19:44:21.811Z,13.57
2022-11-17T19:46:51.721Z,13.97
2022-11-17T19:49:20.566Z,12.77
2022-11-17T19:51:49.242Z,13.63
2022-11-17T19:54:17.743Z,12.93
2022-11-17T19:56:46.204Z,12.50
2022-11-17T19:59:16.706Z,12.93
2022-11-17T20:01:46.229Z,11.40
2022-11-17T20:04:16.249Z,11.70
2022-11-17T20:06:45.043Z,9.93
2022-11-17T20:09:15.253Z,10.73
2022-11-17T20:11:44.574Z,10.63
2022-11-17T20:14:14.517Z,10.87
2022-11-17T20:16:43.032Z,10.80
2022-11-17T20:19:13.825Z,10.77
2022-11-17T20:21:43.942Z,10.90
2022-11-17T20:24:12.569Z,11.47
2022-11-17T20:26:43.010Z,11.87
2022-11-17T20:29:11.511Z,19.73
2022-11-17T20:31:40.161Z,21.00
2022-11-17T20:34:08.687Z,17.53
2022-11-17T20:36:37.301Z,15.80
2022-11-17T20:39:08.178Z,13.03
2022-11-17T20:41:36.696Z,12.90
2022-11-17T20:44:05.583Z,11.90
2022-11-17T20:46:34.198Z,11.53
2022-11-17T20:49:02.712Z,11.43
2022-11-17T20:51:32.268Z,11.83
2022-11-17T20:54:01.260Z,10.43
2022-11-17T20:56:31.210Z,10.67
2022-11-17T20:59:00.311Z,11.20
2022-11-17T21:01:29.217Z,10.53
2022-11-17T21:03:57.747Z,11.27
2022-11-17T21:06:26.191Z,10.93
2022-11-17T21:08:54.699Z,11.83
2022-11-17T21:11:42.283Z,11.73
2022-11-17T21:14:14.036Z,11.47
2022-11-17T21:16:45.553Z,12.20
2022-11-17T21:19:15.365Z,11.60
2022-11-17T21:21:44.075Z,11.20
2022-11-17T21:24:13.036Z,11.10
2022-11-17T21:26:42.596Z,11.10
2022-11-17T21:29:12.680Z,10.10
2022-11-17T21:31:41.223Z,10.60
2022-11-17T21:34:15.091Z,10.97
2022-11-17T21:36:43.854Z,14.77
2022-11-17T21:39:18.648Z,16.00
2022-11-17T21:41:47.354Z,12.90
2022-11-17T21:44:17.187Z,11.70
2022-11-17T21:46:45.639Z,10.93
2022-11-17T21:49:14.475Z,10.00
2022-11-17T21:51:43.123Z,9.60
2022-11-17T21:54:11.653Z,9.13
2022-11-17T21:56:40.766Z,9.50
2022-11-17T21:59:12.917Z,13.60
2022-11-17T22:01:42.801Z,37.27
2022-11-17T22:04:12.752Z,32.77
2022-11-17T22:06:41.294Z,38.33
2022-11-17T22:09:09.997Z,21.27
2022-11-17T22:11:39.084Z,23.63
2022-11-17T22:14:10.199Z,30.73
2022-11-17T22:16:39.642Z,27.93
2022-11-17T22:19:10.271Z,13.70
2022-11-17T22:21:39.289Z,11.67
2022-11-17T22:24:10.065Z,7.63
2022-11-17T22:26:40.920Z,8.00
2022-11-17T22:29:12.190Z,9.93
2022-11-17T22:31:40.694Z,10.03
2022-11-17T22:34:10.576Z,11.13
2022-11-17T22:36:39.777Z,14.87
2022-11-17T22:39:09.314Z,13.63
2022-11-17T22:41:37.902Z,12.40
2022-11-17T22:44:06.745Z,17.03
2022-11-17T22:46:36.087Z,31.00
2022-11-17T22:49:04.674Z,27.50
2022-11-17T22:51:52.158Z,18.13
2022-11-17T22:54:20.789Z,14.37
2022-11-17T22:56:49.359Z,10.90
2022-11-17T22:59:18.129Z,9.83
2022-11-17T23:01:46.837Z,9.30
2022-11-17T23:04:16.396Z,8.43
2022-11-17T23:06:46.428Z,8.13
2022-11-17T23:09:14.926Z,8.60
2022-11-17T23:11:43.871Z,9.03
2022-11-17T23:14:14.336Z,8.97
2022-11-17T23:16:43.533Z,9.47
2022-11-17T23:19:15.214Z,10.17
2022-11-17T23:21:45.474Z,9.53
2022-11-17T23:24:14.761Z,9.83
2022-11-17T23:26:43.882Z,8.83
2022-11-17T23:29:12.364Z,9.03
2022-11-17T23:31:40.994Z,8.47
2022-11-17T23:34:10.815Z,9.00
2022-11-17T23:36:39.358Z,7.60
2022-11-17T23:39:09.370Z,8.13
2022-11-17T23:41:38.086Z,8.07
2022-11-17T23:44:06.925Z,7.43
2022-11-17T23:46:35.376Z,7.57
2022-11-17T23:49:03.999Z,7.87
2022-11-17T23:51:32.402Z,7.70
2022-11-17T23:54:01.508Z,8.07
2022-11-17T23:56:34.661Z,7.77
2022-11-17T23:59:03.647Z,8.70
